createdAt,value
2018-06-04T00:00:10.439Z,17.60
2018-06-04T00:02:39.420Z,17.58
2018-06-04T00:05:07.801Z,17.51
2018-06-04T00:07:36.041Z,17.65
2018-06-04T00:10:04.773Z,17.59
2018-06-04T00:12:33.092Z,17.66
2018-06-04T00:15:01.225Z,17.49
2018-06-04T00:17:29.352Z,17.50
2018-06-04T00:19:57.498Z,17.38
2018-06-04T00:22:26.655Z,17.26
2018-06-04T00:24:54.708Z,17.21
2018-06-04T00:27:23.263Z,17.21
2018-06-04T00:29:51.346Z,17.21
2018-06-04T00:32:19.598Z,17.17
2018-06-04T00:34:47.904Z,17.13
2018-06-04T00:37:16.429Z,17.15
2018-06-04T00:39:45.543Z,17.09
2018-06-04T00:42:14.405Z,17.04
2018-06-04T00:44:42.492Z,16.95
2018-06-04T00:47:10.596Z,17.07
2018-06-04T00:49:38.876Z,17.08
2018-06-04T00:52:09.413Z,16.95
2018-06-04T00:54:38.478Z,16.82
2018-06-04T00:57:06.708Z,16.77
2018-06-04T00:59:36.211Z,16.75
2018-06-04T01:02:04.806Z,16.76
2018-06-04T01:04:32.915Z,16.70
2018-06-04T01:07:01.033Z,16.80
2018-06-04T01:09:29.152Z,16.80
2018-06-04T01:11:57.501Z,16.80
2018-06-04T01:14:26.000Z,16.84
2018-06-04T01:16:54.108Z,16.78
2018-06-04T01:19:22.761Z,16.73
2018-06-04T01:21:51.360Z,16.74
2018-06-04T01:24:20.514Z,16.69
2018-06-04T01:26:48.588Z,16.65
2018-06-04T01:29:17.456Z,16.68
2018-06-04T01:31:46.992Z,16.62
2018-06-04T01:34:15.135Z,16.68
2018-06-04T01:36:43.229Z,16.52
2018-06-04T01:39:13.326Z,16.44
2018-06-04T01:41:43.283Z,16.28
2018-06-04T01:44:13.477Z,16.20
2018-06-04T01:46:42.013Z,16.20
2018-06-04T01:49:10.580Z,16.26
2018-06-04T01:51:38.670Z,16.20
2018-06-04T01:54:06.761Z,16.19
2018-06-04T01:56:34.849Z,16.17
2018-06-04T01:59:02.973Z,16.17
2018-06-04T02:01:31.389Z,16.19
2018-06-04T02:03:59.493Z,16.17
2018-06-04T02:06:27.585Z,16.25
2018-06-04T02:08:55.780Z,16.31
2018-06-04T02:11:24.092Z,16.25
2018-06-04T02:13:52.180Z,16.23
2018-06-04T02:16:20.624Z,16.19
2018-06-04T02:18:49.662Z,16.08
2018-06-04T02:21:17.781Z,15.97
2018-06-04T02:23:47.381Z,15.93
2018-06-04T02:26:15.616Z,15.83
2018-06-04T02:28:44.101Z,15.87
2018-06-04T02:31:13.201Z,15.87
2018-06-04T02:33:41.846Z,15.76
2018-06-04T02:36:11.020Z,15.87
2018-06-04T02:38:40.547Z,15.95
2018-06-04T02:41:08.688Z,15.80
2018-06-04T02:43:37.156Z,15.83
2018-06-04T02:46:05.723Z,16.05
2018-06-04T02:48:34.775Z,15.90
2018-06-04T02:51:03.129Z,15.76
2018-06-04T02:56:23.637Z,15.75
2018-06-04T02:58:51.961Z,15.72
2018-06-04T03:01:20.132Z,15.60
2018-06-04T03:03:48.261Z,15.62
2018-06-04T03:06:17.477Z,15.61
2018-06-04T03:08:47.533Z,15.72
2018-06-04T03:11:15.768Z,15.78
2018-06-04T03:13:44.224Z,15.77
2018-06-04T03:16:12.392Z,15.77
2018-06-04T03:18:41.774Z,15.82
2018-06-04T03:21:10.112Z,15.79
2018-06-04T03:23:39.933Z,15.68
2018-06-04T03:26:09.286Z,15.69
2018-06-04T03:28:37.780Z,15.64
2018-06-04T03:31:06.350Z,15.61
2018-06-04T03:33:34.640Z,15.66
2018-06-04T03:36:02.784Z,15.64
2018-06-04T03:38:30.907Z,15.64
2018-06-04T03:40:59.001Z,15.70
2018-06-04T03:43:27.089Z,15.66
2018-06-04T03:45:55.213Z,15.71
2018-06-04T03:48:23.573Z,15.69
2018-06-04T03:50:51.693Z,15.72
2018-06-04T03:53:21.532Z,15.78
2018-06-04T03:55:49.669Z,15.81
2018-06-04T03:58:17.793Z,15.78
2018-06-04T04:00:46.665Z,15.83
2018-06-04T04:03:15.336Z,15.94
2018-06-04T04:05:43.493Z,15.95
2018-06-04T04:08:11.612Z,15.99
2018-06-04T04:10:41.387Z,16.16
2018-06-04T04:13:10.823Z,16.31
2018-06-04T04:15:39.838Z,16.43
2018-06-04T04:18:07.940Z,16.68
2018-06-04T04:20:36.930Z,17.12
2018-06-04T04:23:05.152Z,17.90
2018-06-04T04:25:33.244Z,18.56
2018-06-04T04:28:02.486Z,19.47
2018-06-04T04:30:30.692Z,20.75
2018-06-04T04:32:58.942Z,22.23
2018-06-04T04:35:27.232Z,23.54
2018-06-04T04:37:55.860Z,24.42
2018-06-04T04:40:24.058Z,25.03
2018-06-04T04:42:52.163Z,25.76
2018-06-04T04:45:20.329Z,25.75
2018-06-04T04:47:48.478Z,25.55
2018-06-04T04:50:16.613Z,25.92
2018-06-04T04:52:45.708Z,26.89
2018-06-04T04:55:13.814Z,26.18
2018-06-04T04:57:42.202Z,26.11
2018-06-04T05:00:10.344Z,27.27
2018-06-04T05:02:39.393Z,27.94
2018-06-04T05:05:07.852Z,26.81
2018-06-04T05:07:35.946Z,26.91
2018-06-04T05:10:04.062Z,27.17
2018-06-04T05:12:32.290Z,27.24
2018-06-04T05:15:00.452Z,28.64
2018-06-04T05:17:28.693Z,29.32
2018-06-04T05:19:57.696Z,29.59
2018-06-04T05:22:25.941Z,29.88
2018-06-04T05:24:54.198Z,29.88
2018-06-04T05:27:22.403Z,29.21
2018-06-04T05:29:50.640Z,28.97
2018-06-04T05:32:18.756Z,29.12
2018-06-04T05:34:46.836Z,29.18
2018-06-04T05:37:14.988Z,28.96
2018-06-04T05:39:43.244Z,28.59
2018-06-04T05:42:11.451Z,29.33
2018-06-04T05:44:39.563Z,29.93
2018-06-04T05:47:07.717Z,29.90
2018-06-04T05:49:35.839Z,29.92
2018-06-04T05:52:03.905Z,30.34
2018-06-04T05:54:32.096Z,30.98
2018-06-04T05:57:00.210Z,29.98
2018-06-04T05:59:29.069Z,30.30
2018-06-04T06:01:57.231Z,30.49
2018-06-04T06:04:25.704Z,30.03
2018-06-04T06:06:54.372Z,28.01
2018-06-04T06:09:22.621Z,27.49
2018-06-04T06:11:50.718Z,28.28
2018-06-04T06:14:18.811Z,28.60
2018-06-04T06:16:46.910Z,29.20
2018-06-04T06:19:15.343Z,28.53
2018-06-04T06:21:43.537Z,27.65
2018-06-04T06:24:11.620Z,28.55
2018-06-04T06:26:39.758Z,28.05
2018-06-04T06:29:08.692Z,28.05
2018-06-04T06:31:37.155Z,27.39
2018-06-04T06:34:05.333Z,26.52
2018-06-04T06:36:33.436Z,26.71
2018-06-04T06:39:01.691Z,25.79
2018-06-04T06:41:29.937Z,25.48
2018-06-04T06:43:58.210Z,23.63
2018-06-04T06:46:26.297Z,22.41
2018-06-04T06:48:54.392Z,22.43
2018-06-04T06:51:23.302Z,22.74
2018-06-04T06:53:51.411Z,22.68
2018-06-04T06:56:19.493Z,22.60
2018-06-04T06:58:47.574Z,22.20
2018-06-04T07:01:16.996Z,21.82
2018-06-04T07:03:45.525Z,21.85
2018-06-04T07:06:15.911Z,21.93
2018-06-04T07:08:44.012Z,21.92
2018-06-04T07:11:12.165Z,21.95
2018-06-04T07:13:40.314Z,22.25
2018-06-04T07:16:08.687Z,22.15
2018-06-04T07:18:36.970Z,22.10
2018-06-04T07:21:05.614Z,21.65
2018-06-04T07:23:33.688Z,21.72
2018-06-04T07:26:01.762Z,22.08
2018-06-04T22:02:38.049Z,19.45
2018-06-04T22:05:06.454Z,19.41
2018-06-04T22:07:34.613Z,19.39
2018-06-04T22:10:02.717Z,19.46
2018-06-04T22:12:30.903Z,19.48
2018-06-04T22:14:59.031Z,19.41
2018-06-04T22:17:27.528Z,19.36
2018-06-04T22:19:56.171Z,19.20
2018-06-04T22:22:24.256Z,19.16
2018-06-04T22:24:52.340Z,19.03
2018-06-04T22:27:20.424Z,19.06
2018-06-04T22:29:48.559Z,19.16
2018-06-04T22:32:16.672Z,18.98
2018-06-04T22:34:44.858Z,19.04
2018-06-04T22:37:13.916Z,18.99
2018-06-04T22:39:42.326Z,18.82
2018-06-04T22:42:10.764Z,18.72
2018-06-04T22:44:38.849Z,18.80
2018-06-04T22:47:06.950Z,18.84
2018-06-04T22:49:35.040Z,18.84
2018-06-04T22:52:03.138Z,18.80
2018-06-04T22:54:31.258Z,18.74
2018-06-04T22:56:59.451Z,18.75
2018-06-04T22:59:27.512Z,18.72
2018-06-04T23:01:55.649Z,18.62
2018-06-04T23:04:23.731Z,18.60
2018-06-04T23:06:51.944Z,18.50
2018-06-04T23:09:20.162Z,18.30
2018-06-04T23:11:48.435Z,18.28
2018-06-04T23:14:16.823Z,18.32
2018-06-04T23:16:44.954Z,18.40
2018-06-04T23:19:13.048Z,18.40
2018-06-04T23:21:42.296Z,18.32
2018-06-04T23:24:10.442Z,18.18
2018-06-04T23:26:39.623Z,18.07
2018-06-04T23:29:07.720Z,18.22
2018-06-04T23:31:35.884Z,18.17
2018-06-04T23:34:03.988Z,18.16
2018-06-04T23:36:32.084Z,18.16
2018-06-04T23:39:00.217Z,18.14
2018-06-04T23:41:28.327Z,18.14
2018-06-04T23:43:56.423Z,18.19
2018-06-04T23:46:25.441Z,18.05
2018-06-04T23:48:53.560Z,18.01
2018-06-04T23:51:21.672Z,17.96
2018-06-04T23:53:49.836Z,17.86
2018-06-04T23:56:18.495Z,17.86
2018-06-04T23:58:46.579Z,17.85
